sensor_id;sensor_type;location;lat;lon;timestamp;P1;durP1;ratioP1;P2;durP2;ratioP2
41512;SDS011;27244;59.940;30.280;2023-10-08T00:02:23;0.57;;;0.30;;
41512;SDS011;27244;59.940;30.280;2023-10-08T00:04:52;0.50;;;0.20;;
41512;SDS011;27244;59.940;30.280;2023-10-08T00:07:20;0.88;;;0.20;;
41512;SDS011;27244;59.940;30.280;2023-10-08T00:09:48;1.25;;;0.20;;
41512;SDS011;27244;59.940;30.280;2023-10-08T00:12:16;0.52;;;0.15;;
41512;SDS011;27244;59.940;30.280;2023-10-08T00:14:46;1.65;;;0.10;;
41512;SDS011;27244;59.940;30.280;2023-10-08T00:17:15;15.75;;;1.02;;
41512;SDS011;27244;59.940;30.280;2023-10-08T00:19:43;43.55;;;3.67;;
41512;SDS011;27244;59.940;30.280;2023-10-08T00:22:10;45.55;;;3.22;;
41512;SDS011;27244;59.940;30.280;2023-10-08T00:24:39;51.58;;;4.05;;
41512;SDS011;27244;59.940;30.280;2023-10-08T00:27:07;31.30;;;2.53;;
41512;SDS011;27244;59.940;30.280;2023-10-08T00:29:35;40.53;;;3.20;;
41512;SDS011;27244;59.940;30.280;2023-10-08T00:32:09;32.60;;;2.38;;
41512;SDS011;27244;59.940;30.280;2023-10-08T00:37:08;27.02;;;2.38;;
41512;SDS011;27244;59.940;30.280;2023-10-08T00:39:39;20.58;;;2.13;;
41512;SDS011;27244;59.940;30.280;2023-10-08T00:42:07;20.63;;;2.05;;
41512;SDS011;27244;59.940;30.280;2023-10-08T00:44:34;23.95;;;1.73;;
41512;SDS011;27244;59.940;30.280;2023-10-08T00:47:07;17.48;;;1.40;;
41512;SDS011;27244;59.940;30.280;2023-10-08T00:49:38;13.18;;;1.08;;
41512;SDS011;27244;59.940;30.280;2023-10-08T00:52:20;13.75;;;1.30;;
41512;SDS011;27244;59.940;30.280;2023-10-08T00:55:03;10.18;;;1.10;;
41512;SDS011;27244;59.940;30.280;2023-10-08T00:57:40;5.80;;;0.50;;
41512;SDS011;27244;59.940;30.280;2023-10-08T01:00:09;14.48;;;1.42;;
41512;SDS011;27244;59.940;30.280;2023-10-08T01:02:49;5.35;;;0.63;;
41512;SDS011;27244;59.940;30.280;2023-10-08T01:05:26;4.25;;;0.40;;
41512;SDS011;27244;59.940;30.280;2023-10-08T01:08:08;7.22;;;0.45;;
41512;SDS011;27244;59.940;30.280;2023-10-08T01:10:37;3.92;;;0.95;;
41512;SDS011;27244;59.940;30.280;2023-10-08T01:13:08;6.75;;;1.05;;
41512;SDS011;27244;59.940;30.280;2023-10-08T01:15:40;4.18;;;0.50;;
41512;SDS011;27244;59.940;30.280;2023-10-08T01:18:10;3.40;;;0.30;;
41512;SDS011;27244;59.940;30.280;2023-10-08T01:20:44;1.95;;;0.30;;
41512;SDS011;27244;59.940;30.280;2023-10-08T01:23:19;1.05;;;0.15;;
41512;SDS011;27244;59.940;30.280;2023-10-08T01:25:48;3.60;;;0.50;;
41512;SDS011;27244;59.940;30.280;2023-10-08T01:28:17;0.93;;;0.25;;
41512;SDS011;27244;59.940;30.280;2023-10-08T01:30:51;0.93;;;0.20;;
41512;SDS011;27244;59.940;30.280;2023-10-08T01:33:20;1.23;;;0.20;;
41512;SDS011;27244;59.940;30.280;2023-10-08T01:35:48;1.90;;;0.40;;
41512;SDS011;27244;59.940;30.280;2023-10-08T01:38:15;0.63;;;0.10;;
41512;SDS011;27244;59.940;30.280;2023-10-08T01:40:50;0.73;;;0.15;;
41512;SDS011;27244;59.940;30.280;2023-10-08T01:43:17;1.23;;;0.15;;
41512;SDS011;27244;59.940;30.280;2023-10-08T01:45:46;1.02;;;0.10;;
41512;SDS011;27244;59.940;30.280;2023-10-08T01:48:16;1.05;;;0.20;;
41512;SDS011;27244;59.940;30.280;2023-10-08T01:50:53;0.20;;;0.10;;
41512;SDS011;27244;59.940;30.280;2023-10-08T01:53:21;1.95;;;0.15;;
41512;SDS011;27244;59.940;30.280;2023-10-08T01:55:49;0.80;;;0.10;;
41512;SDS011;27244;59.940;30.280;2023-10-08T01:58:19;1.85;;;0.10;;
41512;SDS011;27244;59.940;30.280;2023-10-08T02:00:48;1.05;;;0.10;;
41512;SDS011;27244;59.940;30.280;2023-10-08T02:03:17;1.13;;;0.00;;
41512;SDS011;27244;59.940;30.280;2023-10-08T02:05:45;0.25;;;0.10;;
41512;SDS011;27244;59.940;30.280;2023-10-08T02:08:18;1.55;;;0.57;;
41512;SDS011;27244;59.940;30.280;2023-10-08T02:10:46;0.38;;;0.05;;
41512;SDS011;27244;59.940;30.280;2023-10-08T02:13:15;1.30;;;0.20;;
41512;SDS011;27244;59.940;30.280;2023-10-08T02:15:43;0.63;;;0.40;;
41512;SDS011;27244;59.940;30.280;2023-10-08T02:18:12;0.40;;;0.20;;
41512;SDS011;27244;59.940;30.280;2023-10-08T02:20:39;0.17;;;0.00;;
41512;SDS011;27244;59.940;30.280;2023-10-08T02:23:07;2.67;;;0.10;;
41512;SDS011;27244;59.940;30.280;2023-10-08T02:25:37;0.45;;;0.10;;
41512;SDS011;27244;59.940;30.280;2023-10-08T02:28:06;1.60;;;0.10;;
41512;SDS011;27244;59.940;30.280;2023-10-08T02:30:36;0.70;;;0.10;;
41512;SDS011;27244;59.940;30.280;2023-10-08T02:33:04;1.58;;;0.10;;
41512;SDS011;27244;59.940;30.280;2023-10-08T02:35:40;0.65;;;0.10;;
41512;SDS011;27244;59.940;30.280;2023-10-08T02:38:09;9.95;;;0.32;;
41512;SDS011;27244;59.940;30.280;2023-10-08T02:40:38;0.17;;;0.03;;
41512;SDS011;27244;59.940;30.280;2023-10-08T02:43:10;0.52;;;0.10;;
41512;SDS011;27244;59.940;30.280;2023-10-08T02:45:44;0.95;;;0.00;;
41512;SDS011;27244;59.940;30.280;2023-10-08T02:48:13;0.50;;;0.10;;
41512;SDS011;27244;59.940;30.280;2023-10-08T02:50:40;0.10;;;0.00;;
41512;SDS011;27244;59.940;30.280;2023-10-08T02:53:09;0.28;;;0.08;;
41512;SDS011;27244;59.940;30.280;2023-10-08T02:55:37;0.65;;;0.05;;
41512;SDS011;27244;59.940;30.280;2023-10-08T02:58:09;0.05;;;0.00;;
41512;SDS011;27244;59.940;30.280;2023-10-08T03:00:40;0.00;;;0.00;;
41512;SDS011;27244;59.940;30.280;2023-10-08T03:03:09;0.90;;;0.00;;
41512;SDS011;27244;59.940;30.280;2023-10-08T03:05:41;0.10;;;0.00;;
41512;SDS011;27244;59.940;30.280;2023-10-08T03:08:12;0.20;;;0.00;;
41512;SDS011;27244;59.940;30.280;2023-10-08T03:10:45;0.10;;;0.05;;
41512;SDS011;27244;59.940;30.280;2023-10-08T03:13:14;0.30;;;0.10;;
41512;SDS011;27244;59.940;30.280;2023-10-08T03:15:42;0.28;;;0.00;;
41512;SDS011;27244;59.940;30.280;2023-10-08T03:18:24;1.08;;;0.10;;
41512;SDS011;27244;59.940;30.280;2023-10-08T03:20:51;0.28;;;0.22;;
41512;SDS011;27244;59.940;30.280;2023-10-08T03:23:19;0.40;;;0.10;;
41512;SDS011;27244;59.940;30.280;2023-10-08T03:25:54;1.13;;;0.10;;
41512;SDS011;27244;59.940;30.280;2023-10-08T03:28:24;0.00;;;0.00;;
41512;SDS011;27244;59.940;30.280;2023-10-08T03:30:54;0.60;;;0.10;;
41512;SDS011;27244;59.940;30.280;2023-10-08T03:33:30;0.80;;;0.13;;
41512;SDS011;27244;59.940;30.280;2023-10-08T03:36:01;0.10;;;0.05;;
41512;SDS011;27244;59.940;30.280;2023-10-08T03:38:35;0.95;;;0.00;;
41512;SDS011;27244;59.940;30.280;2023-10-08T03:41:17;0.15;;;0.10;;
41512;SDS011;27244;59.940;30.280;2023-10-08T03:43:46;0.10;;;0.00;;
41512;SDS011;27244;59.940;30.280;2023-10-08T03:46:26;0.30;;;0.00;;
41512;SDS011;27244;59.940;30.280;2023-10-08T03:48:56;0.20;;;0.20;;
41512;SDS011;27244;59.940;30.280;2023-10-08T03:51:23;0.00;;;0.00;;
41512;SDS011;27244;59.940;30.280;2023-10-08T03:53:52;0.30;;;0.10;;
41512;SDS011;27244;59.940;30.280;2023-10-08T03:56:36;0.40;;;0.10;;
41512;SDS011;27244;59.940;30.280;2023-10-08T03:59:03;1.00;;;0.00;;
41512;SDS011;27244;59.940;30.280;2023-10-08T04:01:38;0.10;;;0.00;;
41512;SDS011;27244;59.940;30.280;2023-10-08T04:04:07;0.43;;;0.00;;
41512;SDS011;27244;59.940;30.280;2023-10-08T04:06:38;0.08;;;0.00;;
41512;SDS011;27244;59.940;30.280;2023-10-08T04:09:12;0.77;;;0.10;;
41512;SDS011;27244;59.940;30.280;2023-10-08T04:11:49;0.20;;;0.00;;
41512;SDS011;27244;59.940;30.280;2023-10-08T04:14:21;2.63;;;0.15;;
41512;SDS011;27244;59.940;30.280;2023-10-08T04:16:50;0.00;;;0.00;;
41512;SDS011;27244;59.940;30.280;2023-10-08T04:19:19;1.95;;;0.28;;
41512;SDS011;27244;59.940;30.280;2023-10-08T04:21:52;0.00;;;0.00;;
41512;SDS011;27244;59.940;30.280;2023-10-08T04:24:23;0.45;;;0.00;;
41512;SDS011;27244;59.940;30.280;2023-10-08T04:26:59;0.22;;;0.10;;
41512;SDS011;27244;59.940;30.280;2023-10-08T04:29:28;0.20;;;0.10;;
41512;SDS011;27244;59.940;30.280;2023-10-08T04:31:58;1.02;;;0.20;;
41512;SDS011;27244;59.940;30.280;2023-10-08T04:34:34;1.50;;;0.03;;
41512;SDS011;27244;59.940;30.280;2023-10-08T04:37:02;0.73;;;0.10;;
41512;SDS011;27244;59.940;30.280;2023-10-08T04:39:37;0.63;;;0.13;;
41512;SDS011;27244;59.940;30.280;2023-10-08T04:42:06;0.52;;;0.10;;
41512;SDS011;27244;59.940;30.280;2023-10-08T04:44:36;5.13;;;0.43;;
41512;SDS011;27244;59.940;30.280;2023-10-08T04:47:05;1.23;;;0.15;;
41512;SDS011;27244;59.940;30.280;2023-10-08T04:49:54;1.23;;;0.20;;
41512;SDS011;27244;59.940;30.280;2023-10-08T04:52:22;1.75;;;0.13;;
41512;SDS011;27244;59.940;30.280;2023-10-08T04:54:50;0.30;;;0.20;;
41512;SDS011;27244;59.940;30.280;2023-10-08T04:57:20;2.83;;;0.10;;
41512;SDS011;27244;59.940;30.280;2023-10-08T04:59:50;0.35;;;0.10;;
41512;SDS011;27244;59.940;30.280;2023-10-08T05:02:22;0.45;;;0.10;;
41512;SDS011;27244;59.940;30.280;2023-10-08T05:05:03;0.35;;;0.17;;
41512;SDS011;27244;59.940;30.280;2023-10-08T05:07:49;1.23;;;0.10;;
41512;SDS011;27244;59.940;30.280;2023-10-08T05:10:42;0.13;;;0.10;;
41512;SDS011;27244;59.940;30.280;2023-10-08T05:13:40;0.73;;;0.17;;
41512;SDS011;27244;59.940;30.280;2023-10-08T05:16:21;4.75;;;0.65;;
41512;SDS011;27244;59.940;30.280;2023-10-08T05:19:08;1.15;;;0.20;;
41512;SDS011;27244;59.940;30.280;2023-10-08T05:21:54;1.98;;;0.17;;
41512;SDS011;27244;59.940;30.280;2023-10-08T05:24:43;0.85;;;0.20;;
41512;SDS011;27244;59.940;30.280;2023-10-08T05:27:31;0.30;;;0.20;;
41512;SDS011;27244;59.940;30.280;2023-10-08T05:30:22;0.70;;;0.30;;
41512;SDS011;27244;59.940;30.280;2023-10-08T05:32:54;0.65;;;0.10;;
41512;SDS011;27244;59.940;30.280;2023-10-08T05:35:38;0.30;;;0.10;;
41512;SDS011;27244;59.940;30.280;2023-10-08T05:38:17;0.40;;;0.20;;
41512;SDS011;27244;59.940;30.280;2023-10-08T05:40:58;0.73;;;0.20;;
41512;SDS011;27244;59.940;30.280;2023-10-08T05:43:42;0.43;;;0.10;;
41512;SDS011;27244;59.940;30.280;2023-10-08T05:46:21;0.15;;;0.10;;
41512;SDS011;27244;59.940;30.280;2023-10-08T05:49:12;0.25;;;0.10;;
41512;SDS011;27244;59.940;30.280;2023-10-08T05:51:57;0.10;;;0.10;;
41512;SDS011;27244;59.940;30.280;2023-10-08T05:54:49;0.43;;;0.20;;
41512;SDS011;27244;59.940;30.280;2023-10-08T05:57:40;0.52;;;0.10;;
41512;SDS011;27244;59.940;30.280;2023-10-08T06:00:12;0.28;;;0.10;;
41512;SDS011;27244;59.940;30.280;2023-10-08T06:02:57;0.10;;;0.10;;
41512;SDS011;27244;59.940;30.280;2023-10-08T06:05:35;0.85;;;0.10;;
41512;SDS011;27244;59.940;30.280;2023-10-08T06:08:29;0.17;;;0.10;;
41512;SDS011;27244;59.940;30.280;2023-10-08T06:11:16;0.35;;;0.20;;
41512;SDS011;27244;59.940;30.280;2023-10-08T06:13:57;0.60;;;0.10;;
41512;SDS011;27244;59.940;30.280;2023-10-08T06:16:26;0.25;;;0.10;;
41512;SDS011;27244;59.940;30.280;2023-10-08T06:19:07;0.20;;;0.10;;
41512;SDS011;27244;59.940;30.280;2023-10-08T06:21:35;0.22;;;0.10;;
41512;SDS011;27244;59.940;30.280;2023-10-08T06:24:06;0.10;;;0.10;;
41512;SDS011;27244;59.940;30.280;2023-10-08T06:26:38;1.40;;;0.40;;
41512;SDS011;27244;59.940;30.280;2023-10-08T06:29:10;10.65;;;2.35;;
41512;SDS011;27244;59.940;30.280;2023-10-08T06:31:52;11.43;;;2.95;;
41512;SDS011;27244;59.940;30.280;2023-10-08T06:34:23;15.50;;;3.90;;
41512;SDS011;27244;59.940;30.280;2023-10-08T06:36:53;11.85;;;3.38;;
41512;SDS011;27244;59.940;30.280;2023-10-08T06:39:21;10.05;;;2.67;;
41512;SDS011;27244;59.940;30.280;2023-10-08T06:41:53;13.82;;;2.60;;
41512;SDS011;27244;59.940;30.280;2023-10-08T06:44:27;13.27;;;2.45;;
41512;SDS011;27244;59.940;30.280;2023-10-08T06:46:54;8.90;;;2.17;;
41512;SDS011;27244;59.940;30.280;2023-10-08T06:49:23;10.55;;;2.60;;
41512;SDS011;27244;59.940;30.280;2023-10-08T06:51:51;9.95;;;2.30;;
41512;SDS011;27244;59.940;30.280;2023-10-08T06:54:19;11.05;;;2.75;;
41512;SDS011;27244;59.940;30.280;2023-10-08T06:56:48;10.45;;;2.53;;
41512;SDS011;27244;59.940;30.280;2023-10-08T06:59:20;8.47;;;2.33;;
41512;SDS011;27244;59.940;30.280;2023-10-08T07:01:51;6.57;;;1.50;;
41512;SDS011;27244;59.940;30.280;2023-10-08T07:04:18;7.35;;;1.60;;
41512;SDS011;27244;59.940;30.280;2023-10-08T07:06:47;6.28;;;1.80;;
41512;SDS011;27244;59.940;30.280;2023-10-08T07:09:16;6.75;;;1.73;;
41512;SDS011;27244;59.940;30.280;2023-10-08T07:11:54;5.85;;;1.67;;
41512;SDS011;27244;59.940;30.280;2023-10-08T07:14:23;5.78;;;1.52;;
41512;SDS011;27244;59.940;30.280;2023-10-08T07:16:52;4.22;;;1.27;;
41512;SDS011;27244;59.940;30.280;2023-10-08T07:19:23;6.45;;;1.38;;
41512;SDS011;27244;59.940;30.280;2023-10-08T07:21:58;5.47;;;0.95;;
41512;SDS011;27244;59.940;30.280;2023-10-08T07:24:33;4.15;;;0.95;;
41512;SDS011;27244;59.940;30.280;2023-10-08T07:27:05;4.35;;;1.10;;
41512;SDS011;27244;59.940;30.280;2023-10-08T07:29:36;4.65;;;0.88;;
41512;SDS011;27244;59.940;30.280;2023-10-08T07:32:03;4.32;;;1.00;;
41512;SDS011;27244;59.940;30.280;2023-10-08T07:34:35;3.88;;;0.93;;
41512;SDS011;27244;59.940;30.280;2023-10-08T07:37:02;3.75;;;0.88;;
41512;SDS011;27244;59.940;30.280;2023-10-08T07:39:31;4.38;;;1.45;;
41512;SDS011;27244;59.940;30.280;2023-10-08T07:42:09;1.95;;;0.70;;
41512;SDS011;27244;59.940;30.280;2023-10-08T07:44:37;3.90;;;0.82;;
41512;SDS011;27244;59.940;30.280;2023-10-08T07:47:05;2.35;;;0.80;;
41512;SDS011;27244;59.940;30.280;2023-10-08T07:49:35;2.45;;;0.55;;
41512;SDS011;27244;59.940;30.280;2023-10-08T07:52:03;2.15;;;0.73;;
41512;SDS011;27244;59.940;30.280;2023-10-08T07:54:31;2.45;;;0.90;;
41512;SDS011;27244;59.940;30.280;2023-10-08T07:57:04;2.28;;;0.60;;
41512;SDS011;27244;59.940;30.280;2023-10-08T07:59:42;2.58;;;0.80;;
41512;SDS011;27244;59.940;30.280;2023-10-08T08:02:12;3.05;;;0.65;;
41512;SDS011;27244;59.940;30.280;2023-10-08T08:04:40;3.95;;;0.80;;
41512;SDS011;27244;59.940;30.280;2023-10-08T08:07:08;4.13;;;0.90;;
41512;SDS011;27244;59.940;30.280;2023-10-08T08:09:41;1.92;;;0.52;;
41512;SDS011;27244;59.940;30.280;2023-10-08T08:12:15;3.25;;;0.70;;
41512;SDS011;27244;59.940;30.280;2023-10-08T08:14:45;3.00;;;0.80;;
41512;SDS011;27244;59.940;30.280;2023-10-08T08:17:13;2.90;;;0.70;;
41512;SDS011;27244;59.940;30.280;2023-10-08T08:19:40;2.28;;;0.60;;
41512;SDS011;27244;59.940;30.280;2023-10-08T08:22:10;3.50;;;1.10;;
41512;SDS011;27244;59.940;30.280;2023-10-08T08:24:40;5.47;;;0.60;;
41512;SDS011;27244;59.940;30.280;2023-10-08T08:27:10;2.53;;;0.70;;
41512;SDS011;27244;59.940;30.280;2023-10-08T08:29:50;3.35;;;0.70;;
41512;SDS011;27244;59.940;30.280;2023-10-08T08:32:21;3.30;;;0.95;;
41512;SDS011;27244;59.940;30.280;2023-10-08T08:34:49;2.70;;;0.60;;
41512;SDS011;27244;59.940;30.280;2023-10-08T08:37:17;4.72;;;1.00;;
41512;SDS011;27244;59.940;30.280;2023-10-08T08:39:47;2.47;;;0.93;;
41512;SDS011;27244;59.940;30.280;2023-10-08T08:42:15;1.70;;;0.63;;
41512;SDS011;27244;59.940;30.280;2023-10-08T08:44:48;2.75;;;0.68;;
41512;SDS011;27244;59.940;30.280;2023-10-08T08:47:18;3.05;;;0.75;;
41512;SDS011;27244;59.940;30.280;2023-10-08T08:49:50;2.53;;;0.50;;
41512;SDS011;27244;59.940;30.280;2023-10-08T08:52:20;1.52;;;0.50;;
41512;SDS011;27244;59.940;30.280;2023-10-08T08:54:53;2.38;;;0.60;;
41512;SDS011;27244;59.940;30.280;2023-10-08T08:57:21;2.35;;;0.63;;
41512;SDS011;27244;59.940;30.280;2023-10-08T08:59:53;1.90;;;0.65;;
41512;SDS011;27244;59.940;30.280;2023-10-08T09:02:26;1.75;;;0.60;;
41512;SDS011;27244;59.940;30.280;2023-10-08T09:04:53;3.83;;;0.95;;
41512;SDS011;27244;59.940;30.280;2023-10-08T09:07:20;2.60;;;0.70;;
41512;SDS011;27244;59.940;30.280;2023-10-08T09:09:46;2.03;;;0.60;;
41512;SDS011;27244;59.940;30.280;2023-10-08T09:12:16;2.10;;;0.60;;
41512;SDS011;27244;59.940;30.280;2023-10-08T09:14:43;3.00;;;0.70;;
41512;SDS011;27244;59.940;30.280;2023-10-08T09:17:10;2.42;;;0.75;;
41512;SDS011;27244;59.940;30.280;2023-10-08T09:19:41;3.88;;;0.60;;
41512;SDS011;27244;59.940;30.280;2023-10-08T09:22:09;3.25;;;0.70;;
41512;SDS011;27244;59.940;30.280;2023-10-08T09:24:38;2.45;;;0.73;;
41512;SDS011;27244;59.940;30.280;2023-10-08T09:27:08;2.72;;;0.85;;
41512;SDS011;27244;59.940;30.280;2023-10-08T09:29:39;2.70;;;0.93;;
41512;SDS011;27244;59.940;30.280;2023-10-08T09:32:09;2.00;;;0.75;;
41512;SDS011;27244;59.940;30.280;2023-10-08T09:34:37;2.03;;;0.57;;
41512;SDS011;27244;59.940;30.280;2023-10-08T09:37:06;2.60;;;0.55;;
41512;SDS011;27244;59.940;30.280;2023-10-08T09:39:33;2.70;;;0.70;;
41512;SDS011;27244;59.940;30.280;2023-10-08T09:42:01;2.92;;;0.65;;
41512;SDS011;27244;59.940;30.280;2023-10-08T09:44:31;2.42;;;0.70;;
41512;SDS011;27244;59.940;30.280;2023-10-08T09:47:03;1.55;;;0.52;;
41512;SDS011;27244;59.940;30.280;2023-10-08T09:49:32;3.95;;;0.60;;
41512;SDS011;27244;59.940;30.280;2023-10-08T09:52:08;2.45;;;0.60;;
41512;SDS011;27244;59.940;30.280;2023-10-08T09:54:44;1.88;;;0.57;;
41512;SDS011;27244;59.940;30.280;2023-10-08T09:57:16;2.72;;;0.80;;
41512;SDS011;27244;59.940;30.280;2023-10-08T09:59:44;1.02;;;0.57;;
41512;SDS011;27244;59.940;30.280;2023-10-08T10:02:14;1.45;;;0.55;;
41512;SDS011;27244;59.940;30.280;2023-10-08T10:04:43;2.30;;;0.70;;
41512;SDS011;27244;59.940;30.280;2023-10-08T10:07:12;1.35;;;0.57;;
41512;SDS011;27244;59.940;30.280;2023-10-08T10:09:42;2.45;;;0.73;;
41512;SDS011;27244;59.940;30.280;2023-10-08T10:12:12;1.85;;;0.40;;
41512;SDS011;27244;59.940;30.280;2023-10-08T10:14:45;2.40;;;0.63;;
41512;SDS011;27244;59.940;30.280;2023-10-08T10:17:13;1.33;;;0.40;;
41512;SDS011;27244;59.940;30.280;2023-10-08T10:19:44;1.87;;;0.60;;
41512;SDS011;27244;59.940;30.280;2023-10-08T10:22:14;3.08;;;0.65;;
41512;SDS011;27244;59.940;30.280;2023-10-08T10:24:54;2.08;;;0.63;;
41512;SDS011;27244;59.940;30.280;2023-10-08T10:27:21;22.42;;;1.00;;
41512;SDS011;27244;59.940;30.280;2023-10-08T10:29:48;5.60;;;0.43;;
41512;SDS011;27244;59.940;30.280;2023-10-08T10:32:17;2.08;;;0.60;;
41512;SDS011;27244;59.940;30.280;2023-10-08T10:34:44;0.90;;;0.35;;
41512;SDS011;27244;59.940;30.280;2023-10-08T10:37:13;4.90;;;0.57;;
41512;SDS011;27244;59.940;30.280;2023-10-08T10:39:52;4.82;;;0.52;;
41512;SDS011;27244;59.940;30.280;2023-10-08T10:42:22;2.75;;;0.82;;
41512;SDS011;27244;59.940;30.280;2023-10-08T10:44:52;4.25;;;0.60;;
41512;SDS011;27244;59.940;30.280;2023-10-08T10:47:21;1.58;;;0.47;;
41512;SDS011;27244;59.940;30.280;2023-10-08T10:50:08;2.30;;;0.52;;
41512;SDS011;27244;59.940;30.280;2023-10-08T10:53:03;1.58;;;0.40;;
41512;SDS011;27244;59.940;30.280;2023-10-08T10:55:36;3.15;;;0.68;;
41512;SDS011;27244;59.940;30.280;2023-10-08T10:58:03;4.47;;;0.80;;
41512;SDS011;27244;59.940;30.280;2023-10-08T11:00:36;1.70;;;0.52;;
41512;SDS011;27244;59.940;30.280;2023-10-08T11:03:16;4.43;;;0.50;;
41512;SDS011;27244;59.940;30.280;2023-10-08T11:05:50;3.75;;;0.60;;
41512;SDS011;27244;59.940;30.280;2023-10-08T11:08:22;4.18;;;0.65;;
41512;SDS011;27244;59.940;30.280;2023-10-08T11:10:59;3.90;;;0.82;;
41512;SDS011;27244;59.940;30.280;2023-10-08T11:13:32;4.07;;;0.98;;
41512;SDS011;27244;59.940;30.280;2023-10-08T11:16:03;2.35;;;0.45;;
41512;SDS011;27244;59.940;30.280;2023-10-08T11:18:31;13.65;;;0.73;;
41512;SDS011;27244;59.940;30.280;2023-10-08T11:21:05;6.13;;;0.70;;
41512;SDS011;27244;59.940;30.280;2023-10-08T11:23:42;6.22;;;0.80;;
41512;SDS011;27244;59.940;30.280;2023-10-08T11:26:12;7.18;;;1.48;;
41512;SDS011;27244;59.940;30.280;2023-10-08T11:28:44;7.97;;;1.25;;
41512;SDS011;27244;59.940;30.280;2023-10-08T11:31:13;3.42;;;0.50;;
41512;SDS011;27244;59.940;30.280;2023-10-08T11:33:45;2.50;;;0.77;;
41512;SDS011;27244;59.940;30.280;2023-10-08T11:36:19;3.85;;;0.90;;
41512;SDS011;27244;59.940;30.280;2023-10-08T11:38:54;3.22;;;0.50;;
41512;SDS011;27244;59.940;30.280;2023-10-08T11:41:26;3.38;;;1.25;;
41512;SDS011;27244;59.940;30.280;2023-10-08T11:43:56;2.72;;;0.47;;
41512;SDS011;27244;59.940;30.280;2023-10-08T11:46:24;4.53;;;0.75;;
41512;SDS011;27244;59.940;30.280;2023-10-08T11:49:04;4.00;;;0.60;;
41512;SDS011;27244;59.940;30.280;2023-10-08T11:51:32;1.58;;;0.60;;
41512;SDS011;27244;59.940;30.280;2023-10-08T11:54:01;4.50;;;0.82;;
41512;SDS011;27244;59.940;30.280;2023-10-08T11:56:31;3.55;;;0.80;;
41512;SDS011;27244;59.940;30.280;2023-10-08T11:58:59;4.55;;;0.77;;
41512;SDS011;27244;59.940;30.280;2023-10-08T12:01:46;2.42;;;0.68;;
41512;SDS011;27244;59.940;30.280;2023-10-08T12:04:15;6.07;;;0.68;;
41512;SDS011;27244;59.940;30.280;2023-10-08T12:06:43;3.08;;;0.70;;
41512;SDS011;27244;59.940;30.280;2023-10-08T12:09:13;2.35;;;0.80;;
41512;SDS011;27244;59.940;30.280;2023-10-08T12:11:41;3.40;;;0.70;;
41512;SDS011;27244;59.940;30.280;2023-10-08T12:14:12;4.03;;;0.52;;
41512;SDS011;27244;59.940;30.280;2023-10-08T12:16:40;3.45;;;0.50;;
41512;SDS011;27244;59.940;30.280;2023-10-08T12:19:11;2.78;;;0.63;;
41512;SDS011;27244;59.940;30.280;2023-10-08T12:21:42;4.60;;;1.10;;
41512;SDS011;27244;59.940;30.280;2023-10-08T12:24:11;0.88;;;0.50;;
41512;SDS011;27244;59.940;30.280;2023-10-08T12:26:43;1.13;;;0.60;;
41512;SDS011;27244;59.940;30.280;2023-10-08T12:29:13;3.70;;;0.60;;
41512;SDS011;27244;59.940;30.280;2023-10-08T12:31:43;2.05;;;0.63;;
41512;SDS011;27244;59.940;30.280;2023-10-08T12:34:12;2.72;;;0.88;;
41512;SDS011;27244;59.940;30.280;2023-10-08T12:36:39;1.90;;;0.60;;
41512;SDS011;27244;59.940;30.280;2023-10-08T12:39:07;2.20;;;0.50;;
41512;SDS011;27244;59.940;30.280;2023-10-08T12:41:44;3.15;;;0.60;;
41512;SDS011;27244;59.940;30.280;2023-10-08T12:44:12;1.80;;;0.43;;
41512;SDS011;27244;59.940;30.280;2023-10-08T12:46:41;2.25;;;0.50;;
41512;SDS011;27244;59.940;30.280;2023-10-08T12:49:14;1.27;;;0.50;;
41512;SDS011;27244;59.940;30.280;2023-10-08T12:51:41;1.13;;;0.40;;
41512;SDS011;27244;59.940;30.280;2023-10-08T12:54:10;3.53;;;0.70;;
41512;SDS011;27244;59.940;30.280;2023-10-08T12:56:48;1.02;;;0.55;;
41512;SDS011;27244;59.940;30.280;2023-10-08T12:59:19;1.33;;;0.50;;
41512;SDS011;27244;59.940;30.280;2023-10-08T13:01:47;1.15;;;0.50;;
41512;SDS011;27244;59.940;30.280;2023-10-08T13:04:16;2.53;;;0.63;;
41512;SDS011;27244;59.940;30.280;2023-10-08T13:06:51;1.20;;;0.57;;
41512;SDS011;27244;59.940;30.280;2023-10-08T13:09:22;1.80;;;0.60;;
41512;SDS011;27244;59.940;30.280;2023-10-08T13:11:51;0.65;;;0.50;;
41512;SDS011;27244;59.940;30.280;2023-10-08T13:14:18;1.23;;;0.40;;
41512;SDS011;27244;59.940;30.280;2023-10-08T13:16:47;1.48;;;0.80;;
41512;SDS011;27244;59.940;30.280;2023-10-08T13:19:19;0.43;;;0.30;;
41512;SDS011;27244;59.940;30.280;2023-10-08T13:21:48;1.23;;;0.50;;
41512;SDS011;27244;59.940;30.280;2023-10-08T13:24:17;1.23;;;0.70;;
41512;SDS011;27244;59.940;30.280;2023-10-08T13:26:44;1.15;;;0.50;;
41512;SDS011;27244;59.940;30.280;2023-10-08T13:29:14;1.83;;;0.60;;
41512;SDS011;27244;59.940;30.280;2023-10-08T13:31:43;1.35;;;0.50;;
41512;SDS011;27244;59.940;30.280;2023-10-08T13:34:11;1.20;;;0.40;;
41512;SDS011;27244;59.940;30.280;2023-10-08T13:36:41;1.38;;;0.60;;
41512;SDS011;27244;59.940;30.280;2023-10-08T13:39:09;1.17;;;0.50;;
41512;SDS011;27244;59.940;30.280;2023-10-08T13:41:43;0.75;;;0.50;;
41512;SDS011;27244;59.940;30.280;2023-10-08T13:44:14;1.70;;;0.63;;
41512;SDS011;27244;59.940;30.280;2023-10-08T13:46:41;2.17;;;0.45;;
41512;SDS011;27244;59.940;30.280;2023-10-08T13:49:14;1.38;;;0.30;;
41512;SDS011;27244;59.940;30.280;2023-10-08T13:51:41;0.50;;;0.32;;
41512;SDS011;27244;59.940;30.280;2023-10-08T13:54:09;0.95;;;0.40;;
41512;SDS011;27244;59.940;30.280;2023-10-08T13:56:37;2.28;;;0.68;;
41512;SDS011;27244;59.940;30.280;2023-10-08T13:59:07;2.05;;;0.40;;
41512;SDS011;27244;59.940;30.280;2023-10-08T14:01:40;1.73;;;0.40;;
41512;SDS011;27244;59.940;30.280;2023-10-08T14:04:11;1.70;;;0.22;;
41512;SDS011;27244;59.940;30.280;2023-10-08T14:09:13;4.03;;;0.30;;
41512;SDS011;27244;59.940;30.280;2023-10-08T14:11:48;3.83;;;0.68;;
41512;SDS011;27244;59.940;30.280;2023-10-08T14:14:18;0.93;;;0.45;;
41512;SDS011;27244;59.940;30.280;2023-10-08T14:16:47;3.50;;;0.50;;
41512;SDS011;27244;59.940;30.280;2023-10-08T14:19:17;1.25;;;0.52;;
41512;SDS011;27244;59.940;30.280;2023-10-08T14:21:49;1.58;;;0.40;;
41512;SDS011;27244;59.940;30.280;2023-10-08T14:24:20;2.70;;;0.50;;
41512;SDS011;27244;59.940;30.280;2023-10-08T14:26:49;2.22;;;0.50;;
41512;SDS011;27244;59.940;30.280;2023-10-08T14:29:20;1.05;;;0.50;;
41512;SDS011;27244;59.940;30.280;2023-10-08T14:31:51;3.13;;;0.45;;
41512;SDS011;27244;59.940;30.280;2023-10-08T14:34:21;0.95;;;0.20;;
41512;SDS011;27244;59.940;30.280;2023-10-08T14:37:10;2.40;;;0.50;;
41512;SDS011;27244;59.940;30.280;2023-10-08T14:39:55;0.50;;;0.30;;
41512;SDS011;27244;59.940;30.280;2023-10-08T14:42:39;1.77;;;0.77;;
41512;SDS011;27244;59.940;30.280;2023-10-08T14:45:22;1.67;;;0.60;;
41512;SDS011;27244;59.940;30.280;2023-10-08T14:47:53;1.48;;;0.50;;
41512;SDS011;27244;59.940;30.280;2023-10-08T14:50:21;3.38;;;0.80;;
41512;SDS011;27244;59.940;30.280;2023-10-08T14:52:49;1.60;;;0.90;;
41512;SDS011;27244;59.940;30.280;2023-10-08T14:55:16;4.13;;;1.17;;
41512;SDS011;27244;59.940;30.280;2023-10-08T14:57:46;5.55;;;1.00;;
41512;SDS011;27244;59.940;30.280;2023-10-08T15:00:17;5.32;;;1.25;;
41512;SDS011;27244;59.940;30.280;2023-10-08T15:02:50;2.30;;;0.88;;
41512;SDS011;27244;59.940;30.280;2023-10-08T15:05:20;1.45;;;0.80;;
41512;SDS011;27244;59.940;30.280;2023-10-08T15:07:48;3.03;;;0.98;;